createdAt,value
2022-10-17T00:02:37.917Z,101865.06
2022-10-17T00:05:42.034Z,101875.59
2022-10-17T00:08:45.827Z,101876.16
2022-10-17T00:11:49.880Z,101873.41
2022-10-17T00:14:52.464Z,101865.16
2022-10-17T00:17:55.311Z,101847.53
2022-10-17T00:20:57.884Z,101852.19
2022-10-17T00:24:01.697Z,101864.91
2022-10-17T00:27:05.895Z,101862.97
2022-10-17T00:30:12.137Z,101851.69
2022-10-17T00:33:14.883Z,101842.25
2022-10-17T00:36:19.559Z,101837.00
2022-10-17T00:39:22.250Z,101837.84
2022-10-17T00:42:26.790Z,101856.28
2022-10-17T00:45:31.266Z,101858.78
2022-10-17T00:48:34.018Z,101873.16
2022-10-17T00:51:42.341Z,101870.72
2022-10-17T00:54:49.417Z,101872.41
2022-10-17T00:57:54.305Z,101864.75
2022-10-17T01:00:57.009Z,101860.78
2022-10-17T01:03:59.972Z,101847.84
2022-10-17T01:07:02.600Z,101851.19
2022-10-17T01:10:08.607Z,101849.63
2022-10-17T01:13:19.859Z,101851.03
2022-10-17T01:16:31.287Z,101846.09
2022-10-17T01:19:59.087Z,101847.63
2022-10-17T01:23:24.124Z,101850.00
2022-10-17T01:26:37.928Z,101854.38
2022-10-17T01:30:04.400Z,101844.19
2022-10-17T01:33:13.865Z,101849.19
2022-10-17T01:36:27.346Z,101837.56
2022-10-17T01:39:43.942Z,101832.31
2022-10-17T01:42:55.740Z,101829.81
2022-10-17T01:46:02.896Z,101828.13
2022-10-17T01:49:09.372Z,101818.13
2022-10-17T01:52:16.104Z,101827.63
2022-10-17T01:55:22.652Z,101817.88
2022-10-17T01:58:28.720Z,101815.34
2022-10-17T02:01:32.563Z,101812.84
2022-10-17T02:04:37.224Z,101817.53
2022-10-17T02:07:42.585Z,101816.09
2022-10-17T02:10:52.172Z,101817.19
2022-10-17T02:14:22.092Z,101809.44
2022-10-17T02:17:37.605Z,101807.75
2022-10-17T02:20:52.806Z,101818.53
2022-10-17T02:24:01.691Z,101819.38
2022-10-17T02:27:09.794Z,101816.09
2022-10-17T02:30:17.114Z,101809.59
2022-10-17T02:33:24.302Z,101814.09
2022-10-17T02:36:33.526Z,101807.50
2022-10-17T02:39:39.472Z,101813.34
2022-10-17T02:42:45.822Z,101805.75
2022-10-17T02:45:49.216Z,101798.03
2022-10-17T02:48:54.260Z,101791.53
2022-10-17T02:52:05.043Z,101786.59
2022-10-17T02:55:13.364Z,101792.44
2022-10-17T02:58:20.790Z,101784.97
2022-10-17T03:01:24.076Z,101778.94
2022-10-17T03:04:26.662Z,101784.59
2022-10-17T03:07:30.660Z,101791.66
2022-10-17T03:10:33.344Z,101801.03
2022-10-17T03:13:38.919Z,101795.88
2022-10-17T03:16:42.593Z,101805.31
2022-10-17T03:19:45.168Z,101798.69
2022-10-17T03:22:49.146Z,101787.59
2022-10-17T03:25:51.690Z,101780.75
2022-10-17T03:28:54.697Z,101786.00
2022-10-17T03:31:57.516Z,101788.66
2022-10-17T03:35:00.171Z,101781.44
2022-10-17T03:38:04.142Z,101773.56
2022-10-17T03:41:07.624Z,101774.44
2022-10-17T03:44:10.220Z,101785.75
2022-10-17T03:47:14.215Z,101780.47
2022-10-17T03:50:17.033Z,101780.22
2022-10-17T03:53:21.059Z,101772.94
2022-10-17T03:56:25.154Z,101773.69
2022-10-17T03:59:27.801Z,101776.72
2022-10-17T04:02:30.375Z,101775.31
2022-10-17T04:05:32.918Z,101768.69
2022-10-17T04:08:36.961Z,101768.63
2022-10-17T04:11:39.865Z,101771.13
2022-10-17T04:14:42.577Z,101765.41
2022-10-17T04:17:45.165Z,101763.00
2022-10-17T04:20:47.707Z,101769.00
2022-10-17T04:23:54.451Z,101759.59
2022-10-17T04:26:56.999Z,101766.19
2022-10-17T04:29:59.567Z,101771.72
2022-10-17T04:33:02.205Z,101764.31
2022-10-17T04:36:07.061Z,101758.50
2022-10-17T04:39:11.206Z,101761.81
2022-10-17T04:42:13.782Z,101765.16
2022-10-17T04:45:16.525Z,101762.09
2022-10-17T04:48:19.263Z,101763.22
2022-10-17T04:51:24.503Z,101759.38
2022-10-17T04:54:30.468Z,101759.59
2022-10-17T04:57:35.843Z,101765.63
2022-10-17T05:00:38.558Z,101760.69
2022-10-17T05:03:41.558Z,101762.09
2022-10-17T05:06:44.279Z,101756.06
2022-10-17T05:09:48.187Z,101761.81
2022-10-17T05:12:51.986Z,101768.63
2022-10-17T05:15:54.970Z,101763.50
2022-10-17T05:18:59.055Z,101757.72
2022-10-17T05:22:01.713Z,101756.06
2022-10-17T05:25:06.587Z,101761.09
2022-10-17T05:28:09.456Z,101764.59
2022-10-17T05:31:12.635Z,101762.16
2022-10-17T05:34:15.189Z,101764.06
2022-10-17T05:37:17.775Z,101764.31
2022-10-17T05:40:21.838Z,101764.06
2022-10-17T05:43:24.373Z,101762.09
2022-10-17T05:46:27.042Z,101765.34
2022-10-17T05:49:44.731Z,101766.44
2022-10-17T05:52:54.235Z,101766.50
2022-10-17T05:55:59.346Z,101768.88
2022-10-17T05:59:01.988Z,101779.13
2022-10-17T06:02:04.785Z,101780.38
2022-10-17T06:05:07.696Z,101790.84
2022-10-17T06:08:10.270Z,101794.53
2022-10-17T06:11:14.724Z,101787.09
2022-10-17T06:14:17.434Z,101797.44
2022-10-17T06:17:20.175Z,101801.97
2022-10-17T06:20:22.723Z,101802.06
2022-10-17T06:23:25.435Z,101801.22
2022-10-17T06:26:29.422Z,101796.31
2022-10-17T06:29:32.044Z,101799.44
2022-10-17T06:32:34.685Z,101816.16
2022-10-17T06:35:37.237Z,101816.38
2022-10-17T06:38:39.836Z,101810.16
2022-10-17T06:41:44.546Z,101815.34
2022-10-17T06:44:47.135Z,101813.03
2022-10-17T06:47:50.358Z,101811.53
2022-10-17T06:50:52.945Z,101806.25
2022-10-17T06:53:55.605Z,101809.88
2022-10-17T06:56:59.493Z,101813.84
2022-10-17T07:00:02.187Z,101815.94
2022-10-17T07:03:04.898Z,101812.09
2022-10-17T07:06:07.940Z,101819.09
2022-10-17T07:09:10.551Z,101819.66
2022-10-17T07:12:14.481Z,101826.38
2022-10-17T07:15:17.279Z,101837.53
2022-10-17T07:18:19.857Z,101839.38
2022-10-17T07:21:22.443Z,101838.53
2022-10-17T07:24:25.018Z,101851.06
2022-10-17T07:27:29.468Z,101849.69
2022-10-17T07:30:32.318Z,101845.53
2022-10-17T07:33:35.019Z,101844.94
2022-10-17T07:36:37.821Z,101839.41
2022-10-17T07:39:40.896Z,101840.22
2022-10-17T07:42:44.840Z,101847.47
2022-10-17T07:45:47.425Z,101849.41
2022-10-17T07:48:49.981Z,101842.78
2022-10-17T07:51:52.685Z,101849.72
2022-10-17T07:54:55.302Z,101853.84
2022-10-17T07:58:00.582Z,101856.66
2022-10-17T08:01:05.938Z,101851.72
2022-10-17T08:04:10.001Z,101848.69
2022-10-17T08:07:20.931Z,101855.91
2022-10-17T08:10:29.292Z,101845.91
2022-10-17T08:13:33.720Z,101849.50
2022-10-17T08:16:36.778Z,101842.84
2022-10-17T08:19:40.273Z,101843.94
2022-10-17T08:22:43.047Z,101850.88
2022-10-17T08:25:45.608Z,101849.47
2022-10-17T08:28:50.373Z,101839.75
2022-10-17T08:31:58.517Z,101838.09
2022-10-17T08:35:04.075Z,101842.28
2022-10-17T08:38:09.983Z,101843.34
2022-10-17T08:41:21.522Z,101846.31
2022-10-17T08:44:38.356Z,101844.88
2022-10-17T08:47:44.230Z,101836.25
2022-10-17T08:50:52.868Z,101838.72
2022-10-17T08:54:02.413Z,101835.63
2022-10-17T08:57:05.110Z,101831.13
2022-10-17T09:00:16.511Z,101825.69
2022-10-17T09:03:33.839Z,101837.94
2022-10-17T09:06:39.963Z,101827.28
2022-10-17T09:09:50.878Z,101848.94
2022-10-17T09:13:06.857Z,101850.47
2022-10-17T09:16:32.954Z,101848.59
2022-10-17T09:19:39.347Z,101843.47
2022-10-17T09:22:47.475Z,101837.78
2022-10-17T09:25:53.687Z,101834.31
2022-10-17T09:28:59.460Z,101830.78
2022-10-17T09:32:05.682Z,101833.16
2022-10-17T09:35:14.317Z,101827.28
2022-10-17T09:38:19.216Z,101821.84
2022-10-17T09:44:53.129Z,101824.19
2022-10-17T09:48:03.785Z,101823.59
2022-10-17T09:51:25.150Z,101818.66
2022-10-17T09:54:40.881Z,101818.06
2022-10-17T09:57:54.825Z,101818.06
2022-10-17T10:01:21.037Z,101829.25
2022-10-17T10:04:30.337Z,101826.06
2022-10-17T10:07:40.469Z,101833.22
2022-10-17T10:10:44.469Z,101840.72
2022-10-17T10:13:49.280Z,101827.91
2022-10-17T10:16:53.753Z,101836.66
2022-10-17T10:19:57.693Z,101825.25
2022-10-17T10:23:08.884Z,101834.59
2022-10-17T10:26:26.447Z,101832.69
2022-10-17T10:29:32.464Z,101825.56
2022-10-17T10:32:37.612Z,101830.88
2022-10-17T10:35:41.648Z,101817.25
2022-10-17T10:38:54.905Z,101826.13
2022-10-17T10:41:57.733Z,101819.06
2022-10-17T10:45:03.968Z,101820.91
2022-10-17T10:48:20.106Z,101814.34
2022-10-17T10:51:29.322Z,101814.78
2022-10-17T10:54:36.683Z,101809.56
2022-10-17T10:57:41.023Z,101798.31
2022-10-17T11:00:44.488Z,101814.00
2022-10-17T11:03:57.201Z,101816.84
2022-10-17T11:07:06.097Z,101807.94
2022-10-17T11:10:15.083Z,101798.50
2022-10-17T11:13:24.395Z,101798.19
2022-10-17T11:16:33.975Z,101792.41
2022-10-17T11:19:40.945Z,101786.94
2022-10-17T11:22:48.148Z,101787.91
2022-10-17T11:25:53.320Z,101783.09
2022-10-17T11:28:57.201Z,101788.38
2022-10-17T11:32:08.945Z,101791.47
2022-10-17T11:35:21.376Z,101796.97
2022-10-17T11:38:37.621Z,101796.53
2022-10-17T11:41:44.279Z,101800.97
2022-10-17T11:44:46.919Z,101801.28
2022-10-17T11:47:54.298Z,101793.66
2022-10-17T11:54:33.924Z,101791.69
2022-10-17T11:57:50.932Z,101783.44
2022-10-17T12:01:01.583Z,101780.84
2022-10-17T12:04:23.022Z,101779.09
2022-10-17T12:07:37.705Z,101773.97
2022-10-17T12:10:49.773Z,101772.69
2022-10-17T12:13:55.185Z,101770.53
2022-10-17T12:16:57.895Z,101763.41
2022-10-17T12:20:28.336Z,101753.69
2022-10-17T12:23:32.601Z,101757.28
2022-10-17T12:26:36.554Z,101753.44
2022-10-17T12:29:39.160Z,101754.84
2022-10-17T12:33:05.617Z,101742.53
2022-10-17T12:36:45.050Z,101738.66
2022-10-17T12:39:47.657Z,101747.47
2022-10-17T12:42:51.818Z,101755.56
2022-10-17T12:45:56.144Z,101761.72
2022-10-17T12:49:05.007Z,101755.97
2022-10-17T12:52:20.854Z,101740.13
2022-10-17T12:55:25.630Z,101745.06
2022-10-17T12:58:32.137Z,101742.47
2022-10-17T13:01:37.990Z,101734.72
2022-10-17T13:04:40.677Z,101737.84
2022-10-17T13:07:46.972Z,101726.16
2022-10-17T13:10:52.664Z,101728.13
2022-10-17T13:13:59.340Z,101728.28
2022-10-17T13:17:04.049Z,101729.09
2022-10-17T13:20:24.466Z,101723.00
2022-10-17T13:23:33.110Z,101735.22
2022-10-17T13:26:35.724Z,101734.41
2022-10-17T13:29:45.508Z,101736.06
2022-10-17T13:32:48.105Z,101735.69
2022-10-17T13:36:06.170Z,101734.38
2022-10-17T13:39:12.483Z,101729.59
2022-10-17T13:42:23.549Z,101737.38
2022-10-17T13:45:32.568Z,101737.56
2022-10-17T13:48:38.859Z,101723.84
2022-10-17T13:51:44.892Z,101729.94
2022-10-17T13:54:50.942Z,101736.84
2022-10-17T13:57:53.636Z,101729.97
2022-10-17T14:00:58.433Z,101733.75
2022-10-17T14:04:09.043Z,101736.84
2022-10-17T14:07:29.294Z,101740.03
2022-10-17T14:10:36.713Z,101737.53
2022-10-17T14:13:39.786Z,101742.97
2022-10-17T14:16:44.938Z,101747.63
2022-10-17T14:19:55.496Z,101747.94
2022-10-17T14:23:30.604Z,101753.03
2022-10-17T14:26:37.151Z,101759.28
2022-10-17T14:29:52.682Z,101766.44
2022-10-17T14:32:59.084Z,101758.09
2022-10-17T14:36:03.686Z,101763.59
2022-10-17T14:39:14.177Z,101755.13
2022-10-17T14:42:20.738Z,101754.59
2022-10-17T14:45:28.204Z,101762.59
2022-10-17T14:48:33.030Z,101772.84
2022-10-17T14:51:50.227Z,101767.41
2022-10-17T14:55:01.592Z,101764.72
2022-10-17T14:58:17.346Z,101768.19
2022-10-17T15:01:20.671Z,101763.91
2022-10-17T15:04:24.710Z,101772.34
2022-10-17T15:07:27.337Z,101780.81
2022-10-17T15:10:34.473Z,101779.75
2022-10-17T15:13:42.145Z,101781.31
2022-10-17T15:16:47.392Z,101776.28
2022-10-17T15:19:54.588Z,101774.13
2022-10-17T15:22:58.935Z,101776.69
2022-10-17T15:26:02.023Z,101773.06
2022-10-17T15:29:05.183Z,101765.72
2022-10-17T15:32:07.943Z,101772.38
2022-10-17T15:35:12.266Z,101771.75
2022-10-17T15:38:18.990Z,101779.72
2022-10-17T15:41:21.916Z,101773.44
2022-10-17T15:44:24.560Z,101777.09
2022-10-17T15:47:31.199Z,101784.13
2022-10-17T15:50:35.564Z,101788.41
2022-10-17T15:53:38.258Z,101785.63
2022-10-17T15:56:43.138Z,101787.38
2022-10-17T15:59:47.086Z,101786.47
2022-10-17T16:02:50.328Z,101783.88
2022-10-17T16:05:54.254Z,101791.50
2022-10-17T16:08:56.974Z,101791.81
2022-10-17T16:11:59.569Z,101797.84
2022-10-17T16:15:02.223Z,101791.59
2022-10-17T16:18:07.318Z,101791.78
2022-10-17T16:21:14.303Z,101796.41
2022-10-17T16:24:17.844Z,101798.50
2022-10-17T16:27:20.435Z,101797.81
2022-10-17T16:30:24.982Z,101807.03
2022-10-17T16:33:27.661Z,101805.31
2022-10-17T16:36:31.619Z,101803.19
2022-10-17T16:39:34.196Z,101806.59
2022-10-17T16:42:36.760Z,101803.75
2022-10-17T16:45:39.523Z,101803.00
2022-10-17T16:48:42.909Z,101806.63
2022-10-17T16:51:46.861Z,101807.75
2022-10-17T16:54:49.415Z,101806.69
2022-10-17T16:57:53.034Z,101810.75
2022-10-17T17:00:55.654Z,101816.94
2022-10-17T17:03:58.826Z,101809.28
2022-10-17T17:07:02.966Z,101809.16
2022-10-17T17:10:06.401Z,101818.69
2022-10-17T17:13:09.073Z,101813.50
2022-10-17T17:16:13.399Z,101818.25
2022-10-17T17:19:17.865Z,101831.28
2022-10-17T17:22:21.750Z,101830.81
2022-10-17T17:25:24.567Z,101828.69
2022-10-17T17:28:27.991Z,101824.91
2022-10-17T17:31:33.359Z,101831.94
2022-10-17T17:34:37.335Z,101826.13
2022-10-17T17:37:41.257Z,101827.38
2022-10-17T17:40:50.582Z,101823.31
2022-10-17T17:43:54.317Z,101831.81
2022-10-17T17:46:56.852Z,101837.38
2022-10-17T17:49:59.423Z,101840.81
2022-10-17T17:53:03.359Z,101843.63
2022-10-17T17:56:10.493Z,101837.22
2022-10-17T17:59:14.296Z,101848.97
2022-10-17T18:02:27.064Z,101846.56
2022-10-17T18:05:30.017Z,101851.91
2022-10-17T18:08:33.934Z,101849.47
2022-10-17T18:11:37.414Z,101861.75
2022-10-17T18:14:40.033Z,101859.00
2022-10-17T18:17:42.904Z,101857.94
2022-10-17T18:20:45.507Z,101867.94
2022-10-17T18:23:50.558Z,101872.44
2022-10-17T18:26:56.026Z,101868.59
2022-10-17T18:29:58.722Z,101874.47
2022-10-17T18:33:01.284Z,101872.81
2022-10-17T18:36:07.091Z,101882.31
2022-10-17T18:39:11.377Z,101878.69
2022-10-17T18:42:13.917Z,101889.56
2022-10-17T18:45:17.388Z,101883.75
2022-10-17T18:48:19.964Z,101890.75
2022-10-17T18:51:24.069Z,101892.44
2022-10-17T18:54:29.205Z,101895.22
2022-10-17T18:57:31.948Z,101892.72
2022-10-17T19:00:34.930Z,101898.88
2022-10-17T19:03:38.061Z,101911.09
2022-10-17T19:06:41.951Z,101909.72
2022-10-17T19:09:45.846Z,101914.16
2022-10-17T19:12:48.473Z,101913.31
2022-10-17T19:15:51.060Z,101914.72
2022-10-17T19:18:55.371Z,101922.50
2022-10-17T19:21:59.998Z,101920.84
2022-10-17T19:25:04.213Z,101923.94
2022-10-17T19:28:06.926Z,101923.91
2022-10-17T19:31:12.983Z,101924.75
2022-10-17T19:34:18.933Z,101922.00
2022-10-17T19:37:21.496Z,101924.72
2022-10-17T19:40:25.533Z,101926.13
2022-10-17T19:43:29.172Z,101926.97
2022-10-17T19:46:33.832Z,101928.06
2022-10-17T19:49:36.967Z,101930.03
2022-10-17T19:52:39.517Z,101930.03
2022-10-17T19:55:44.000Z,101921.97
2022-10-17T19:58:47.061Z,101933.38
2022-10-17T20:01:49.721Z,101933.66
2022-10-17T20:04:54.763Z,101938.66
2022-10-17T20:08:15.520Z,101948.34
2022-10-17T20:11:21.854Z,101950.28
2022-10-17T20:14:24.664Z,101947.25
2022-10-17T20:17:27.478Z,101949.19
2022-10-17T20:20:30.269Z,101953.91
2022-10-17T20:23:33.324Z,101944.75
2022-10-17T20:26:39.067Z,101956.09
2022-10-17T20:29:42.441Z,101958.31
2022-10-17T20:32:45.122Z,101957.22
2022-10-17T20:35:48.410Z,101955.25
2022-10-17T20:38:54.287Z,101957.75
2022-10-17T20:41:58.260Z,101956.34
2022-10-17T20:45:00.965Z,101961.88
2022-10-17T20:48:03.626Z,101972.09
2022-10-17T20:51:08.621Z,101968.22
2022-10-17T20:54:11.796Z,101973.47
2022-10-17T20:57:15.740Z,101977.03
2022-10-17T21:00:18.468Z,101985.03
2022-10-17T21:03:21.055Z,101986.44
2022-10-17T21:06:24.952Z,101990.88
2022-10-17T21:09:27.591Z,101993.91
2022-10-17T21:12:50.146Z,101986.38
2022-10-17T21:15:54.357Z,101991.63
2022-10-17T21:18:58.144Z,101996.63
2022-10-17T21:22:00.867Z,102006.88
2022-10-17T21:25:03.487Z,102001.84
2022-10-17T21:28:07.609Z,102000.19
2022-10-17T21:31:12.716Z,102004.06
2022-10-17T21:34:18.930Z,102006.00
2022-10-17T21:37:21.692Z,102006.28
2022-10-17T21:40:24.266Z,102007.94
2022-10-17T21:43:28.326Z,102017.34
2022-10-17T21:46:31.579Z,102018.19
2022-10-17T21:49:35.108Z,102015.13
2022-10-17T21:52:37.629Z,102025.94
2022-10-17T21:55:40.355Z,102031.47
2022-10-17T21:58:44.900Z,102033.41
2022-10-17T22:01:48.044Z,102033.41
2022-10-17T22:04:50.821Z,102034.25
2022-10-17T22:07:53.366Z,102036.19
2022-10-17T22:10:55.964Z,102032.81
2022-10-17T22:14:01.446Z,102037.28
2022-10-17T22:17:04.224Z,102036.44
2022-10-17T22:20:07.846Z,102043.34
2022-10-17T22:23:10.523Z,102042.22
2022-10-17T22:26:14.106Z,102041.41
2022-10-17T22:29:18.825Z,102039.47
2022-10-17T22:32:22.605Z,102046.13
2022-10-17T22:35:25.436Z,102048.88
2022-10-17T22:38:28.301Z,102045.25
2022-10-17T22:41:30.845Z,102044.16
2022-10-17T22:44:34.890Z,102041.09
2022-10-17T22:47:37.697Z,102036.31
2022-10-17T22:50:42.532Z,102040.75
2022-10-17T22:53:45.325Z,102048.84
2022-10-17T22:56:47.903Z,102056.59
2022-10-17T22:59:51.912Z,102052.75
2022-10-17T23:02:54.954Z,102046.34
2022-10-17T23:05:57.675Z,102044.41
2022-10-17T23:09:00.465Z,102049.13
2022-10-17T23:12:03.030Z,102043.59
2022-10-17T23:15:08.278Z,102040.81
2022-10-17T23:18:11.415Z,102044.16
2022-10-17T23:21:14.180Z,102043.06
2022-10-17T23:24:17.077Z,102039.72
2022-10-17T23:27:19.670Z,102044.97
2022-10-17T23:30:23.719Z,102039.41
2022-10-17T23:33:26.412Z,102046.31
2022-10-17T23:36:29.010Z,102053.50
2022-10-17T23:39:31.619Z,102052.94
2022-10-17T23:42:34.255Z,102057.38
2022-10-17T23:45:38.309Z,102059.03
2022-10-17T23:48:41.496Z,102051.81
2022-10-17T23:51:44.094Z,102063.47
2022-10-17T23:54:46.817Z,102059.88
2022-10-17T23:57:49.396Z,102053.75
